Suquamish, Washington
Current Conditions -  °F | °C
As of 7:53 AM on Thursday 27 Nov 2014 (Local Time) from KPAE Reporting Station
Broken Clouds Broken Clouds  
Wind Chill: 53°   Ceiling: 1700
Heat Index: 53°   Visibility: 10mi
Dew Point: 49°   Wind: 28mph
Humidity: 86%   Direction: 180°S
Pressure: 29.8"   Gusts: 38mph
Location:  47.73°N, 122.55°W
Report Text: KPAE 271553Z 18024G33KT 10SM BKN017 BKN022 12/09 A2980 RMK AO2 PK WND 18033/1547 RAB03E28 SLP090 P0000 T01170094
Loading
Personal Weather Stations






























Interactive Weather Map New forecast layout! Learn more

10-Day Weather Forecast

Advertisements
Track Severe Weather on mobile